Time;durP1;ratioP1;P1;durP2;ratioP2;P2;SDS_P1;SDS_P2;PMS_P1;PMS_P2;Temp;Humidity;BMP_temperature;BMP_pressure;BME280_temperature;BME280_humidity;BME280_pressure;Samples;Min_cycle;Max_cycle;Signal;HPM_P1;HPM_P2
2022/10/04 00:02:01;;;;;;;3.88;2.30;;;13.90;99.90;;;;;;4163638;28;19909;-64
2022/10/04 00:04:10;;;;;;;5.47;2.95;;;13.90;99.90;;;;;;4166660;28;20090;-64
2022/10/04 00:06:24;;;;;;;6.00;2.58;;;13.90;99.90;;;;;;4169475;28;20055;-63
2022/10/04 00:08:35;;;;;;;5.40;3.17;;;13.90;99.90;;;;;;4167107;28;20049;-64
2022/10/04 00:10:36;;;;;;;4.78;2.60;;;14.00;99.90;;;;;;4171507;28;20093;-64
2022/10/04 00:12:55;;;;;;;5.43;2.78;;;14.00;99.90;;;;;;4169543;28;20420;-64
2022/10/04 00:14:59;;;;;;;4.13;2.67;;;14.00;99.90;;;;;;4171910;28;20052;-64
2022/10/04 00:17:09;;;;;;;5.65;2.95;;;14.00;99.90;;;;;;4166409;28;20045;-64
2022/10/04 00:19:18;;;;;;;3.28;2.40;;;14.00;99.90;;;;;;4147479;28;20045;-63
2022/10/04 00:21:19;;;;;;;5.60;3.13;;;14.00;99.90;;;;;;4169630;28;20080;-64
2022/10/04 00:23:22;;;;;;;6.45;2.90;;;14.00;99.90;;;;;;4172435;28;20431;-64
2022/10/04 00:25:35;;;;;;;4.28;2.55;;;13.90;99.90;;;;;;4165382;28;20037;-64
2022/10/04 00:27:37;;;;;;;7.72;3.13;;;13.90;99.90;;;;;;4166908;28;20043;-64
2022/10/04 00:29:41;;;;;;;5.35;2.80;;;13.80;99.90;;;;;;4168663;28;20079;-64
2022/10/04 00:32:07;;;;;;;5.38;2.88;;;13.80;99.90;;;;;;4168483;28;20040;-63
2022/10/04 00:34:07;;;;;;;5.18;2.85;;;13.80;99.90;;;;;;4171276;28;20087;-64
2022/10/04 00:36:23;;;;;;;6.38;2.33;;;13.80;99.90;;;;;;4169754;28;20480;-64
2022/10/04 00:38:26;;;;;;;4.22;2.38;;;13.80;99.90;;;;;;4171297;28;20123;-64
2022/10/04 00:40:50;;;;;;;6.93;3.13;;;13.80;99.90;;;;;;4163501;28;20400;-63
2022/10/04 00:43:01;;;;;;;5.07;3.00;;;13.80;99.90;;;;;;4171320;28;20087;-63
2022/10/04 00:45:14;;;;;;;4.95;3.15;;;13.80;99.90;;;;;;4162703;28;20036;-63
2022/10/04 00:47:25;;;;;;;4.80;2.30;;;13.80;99.90;;;;;;4168421;28;20083;-64
2022/10/04 00:49:38;;;;;;;4.13;2.67;;;13.80;99.90;;;;;;4166350;28;20048;-64
2022/10/04 00:52:00;;;;;;;5.07;2.97;;;13.80;99.90;;;;;;4166312;28;20033;-64
2022/10/04 00:54:00;;;;;;;5.93;2.92;;;13.80;99.90;;;;;;4170842;28;20526;-64
2022/10/04 00:56:02;;;;;;;8.30;2.97;;;13.80;99.90;;;;;;4164047;28;20091;-64
2022/10/04 00:58:11;;;;;;;6.22;3.15;;;13.80;99.90;;;;;;4172587;28;20029;-64
2022/10/04 01:00:18;;;;;;;6.88;2.80;;;13.80;99.90;;;;;;4166059;28;20111;-63
2022/10/04 01:02:28;;;;;;;4.70;2.70;;;13.80;99.90;;;;;;4168172;28;20049;-64
2022/10/04 01:04:40;;;;;;;6.15;3.03;;;13.80;99.90;;;;;;4170763;28;20033;-63
2022/10/04 01:06:41;;;;;;;4.72;2.53;;;13.80;99.90;;;;;;4169256;28;20559;-63
2022/10/04 01:08:51;;;;;;;5.57;2.80;;;13.80;99.90;;;;;;4165945;28;20037;-64
2022/10/04 01:11:01;;;;;;;5.30;2.75;;;13.80;99.90;;;;;;4166298;28;20037;-64
2022/10/04 01:13:27;;;;;;;4.32;2.65;;;13.80;99.90;;;;;;4171025;28;20025;-64
2022/10/04 01:15:43;;;;;;;5.13;2.75;;;13.80;99.90;;;;;;4173758;28;20051;-64
2022/10/04 01:18:31;;;;;;;3.65;2.35;;;13.70;99.90;;;;;;4169066;28;20502;-63
2022/10/04 01:20:36;;;;;;;3.65;2.42;;;13.70;99.90;;;;;;4140849;28;20041;-63
2022/10/04 01:22:43;;;;;;;3.00;2.28;;;13.70;99.90;;;;;;4149121;28;20038;-64
2022/10/04 01:24:44;;;;;;;5.38;2.50;;;13.70;99.90;;;;;;4170574;28;20037;-64
2022/10/04 01:26:45;;;;;;;5.03;2.70;;;13.60;99.90;;;;;;4165190;28;20033;-63
2022/10/04 01:28:46;;;;;;;5.18;2.90;;;13.60;99.90;;;;;;4151769;28;20030;-64
2022/10/04 01:30:47;;;;;;;4.13;2.65;;;13.60;99.90;;;;;;4167970;28;20048;-63
2022/10/04 01:32:47;;;;;;;5.88;3.05;;;13.60;99.90;;;;;;4171374;28;20029;-64
2022/10/04 01:34:48;;;;;;;5.32;2.47;;;13.60;99.90;;;;;;4170772;28;20455;-64
2022/10/04 01:36:51;;;;;;;4.68;2.80;;;13.60;99.90;;;;;;4167649;28;20144;-63
2022/10/04 01:38:52;;;;;;;8.98;2.80;;;13.60;99.90;;;;;;4164631;28;20095;-64
2022/10/04 01:40:56;;;;;;;4.38;2.60;;;13.60;99.90;;;;;;4166877;28;20022;-64
2022/10/04 01:43:02;;;;;;;8.55;3.28;;;13.60;99.90;;;;;;4169819;28;20037;-64
2022/10/04 01:45:07;;;;;;;7.43;3.50;;;13.60;99.90;;;;;;4167860;28;20493;-65
2022/10/04 01:47:21;;;;;;;5.63;3.20;;;13.60;99.90;;;;;;4170110;28;20116;-64
2022/10/04 01:49:28;;;;;;;4.35;2.70;;;13.60;99.90;;;;;;4172109;28;20440;-64
2022/10/04 01:51:38;;;;;;;6.63;3.17;;;13.60;99.90;;;;;;4166660;28;20048;-64
2022/10/04 01:54:08;;;;;;;6.95;3.20;;;13.60;99.90;;;;;;4165587;28;20029;-64
2022/10/04 01:56:22;;;;;;;6.03;3.40;;;13.60;99.90;;;;;;4150822;28;20403;-63
2022/10/04 01:58:29;;;;;;;5.75;3.20;;;13.60;99.90;;;;;;4150064;28;20033;-64
2022/10/04 02:00:30;;;;;;;7.07;3.45;;;13.60;99.90;;;;;;4169510;28;20034;-64
2022/10/04 02:02:49;;;;;;;6.13;3.00;;;13.50;99.90;;;;;;4163760;28;20049;-63
2022/10/04 02:04:54;;;;;;;6.28;2.95;;;13.60;99.90;;;;;;4171395;28;20112;-63
2022/10/04 02:06:57;;;;;;;4.90;3.15;;;13.60;99.90;;;;;;4164909;28;20107;-64
2022/10/04 02:08:58;;;;;;;6.10;3.47;;;13.50;99.90;;;;;;4163443;28;20447;-64
2022/10/04 02:11:02;;;;;;;6.00;2.92;;;13.60;99.90;;;;;;4166600;28;20053;-64
2022/10/04 02:13:08;;;;;;;4.75;3.00;;;13.50;99.90;;;;;;4165990;28;20065;-63
2022/10/04 02:15:10;;;;;;;6.40;3.92;;;13.50;99.90;;;;;;4167356;28;20048;-65
2022/10/04 02:17:11;;;;;;;6.75;3.55;;;13.50;99.90;;;;;;4169487;28;20036;-63
2022/10/04 02:19:13;;;;;;;6.40;3.58;;;13.40;99.90;;;;;;4167548;28;20041;-64
2022/10/04 02:21:15;;;;;;;7.97;3.78;;;13.40;99.90;;;;;;4165424;28;20460;-63
2022/10/04 02:23:18;;;;;;;9.10;3.90;;;13.40;99.90;;;;;;4162564;28;20029;-64
2022/10/04 02:25:20;;;;;;;9.35;4.20;;;13.40;99.90;;;;;;4165192;28;20029;-64
2022/10/04 02:27:25;;;;;;;7.47;3.67;;;13.30;99.90;;;;;;4168904;28;20035;-63
2022/10/04 02:29:26;;;;;;;6.68;3.65;;;13.20;99.90;;;;;;4168323;28;20033;-63
2022/10/04 02:33:49;;;;;;;8.75;3.90;;;13.10;99.90;;;;;;4166823;28;20052;-64
2022/10/04 02:35:50;;;;;;;6.55;3.58;;;13.10;99.90;;;;;;4164820;28;20041;-64
2022/10/04 02:38:01;;;;;;;5.80;3.42;;;13.10;99.90;;;;;;4156188;28;20025;-64
2022/10/04 02:40:09;;;;;;;7.32;3.80;;;13.10;99.90;;;;;;4164366;28;20507;-64
2022/10/04 02:42:20;;;;;;;6.55;3.40;;;13.10;99.90;;;;;;4166406;28;20064;-64
2022/10/04 02:44:40;;;;;;;8.07;3.33;;;13.10;99.90;;;;;;4168012;28;20033;-64
2022/10/04 02:46:49;;;;;;;7.70;3.45;;;13.10;99.90;;;;;;4173437;28;20029;-63
2022/10/04 02:48:57;;;;;;;8.45;3.63;;;13.10;99.90;;;;;;4148438;28;20117;-64
2022/10/04 02:51:18;;;;;;;7.38;3.30;;;13.10;99.90;;;;;;4167814;28;20433;-63
2022/10/04 02:53:49;;;;;;;8.68;4.00;;;13.10;99.90;;;;;;4166710;28;20055;-64
2022/10/04 02:55:50;;;;;;;5.82;3.22;;;13.10;99.90;;;;;;4169263;28;20041;-63
2022/10/04 02:57:51;;;;;;;6.93;3.10;;;13.10;99.90;;;;;;4164519;28;20033;-63
2022/10/04 03:00:17;;;;;;;8.13;3.38;;;13.20;99.90;;;;;;4165154;28;20373;-64
2022/10/04 03:02:25;;;;;;;7.20;3.65;;;13.10;99.90;;;;;;4151641;28;20037;-63
2022/10/04 03:04:36;;;;;;;7.50;3.40;;;13.20;99.90;;;;;;4173095;28;23664;-64
2022/10/04 03:06:36;;;;;;;5.78;3.47;;;13.20;99.90;;;;;;4169715;28;20037;-64
2022/10/04 03:08:48;;;;;;;7.75;3.45;;;13.20;99.90;;;;;;4171400;28;20120;-64
2022/10/04 03:10:49;;;;;;;6.82;3.50;;;13.20;99.90;;;;;;4172712;28;20095;-63
2022/10/04 03:12:50;;;;;;;7.47;3.33;;;13.20;99.90;;;;;;4170500;28;20115;-63
2022/10/04 03:14:53;;;;;;;8.52;3.58;;;13.20;99.90;;;;;;4170200;28;20040;-63
2022/10/04 03:16:57;;;;;;;7.97;4.00;;;13.20;99.90;;;;;;4169021;28;20099;-63
2022/10/04 03:18:57;;;;;;;6.60;3.33;;;13.20;99.90;;;;;;4170170;28;20076;-64
2022/10/04 03:21:01;;;;;;;7.95;3.67;;;13.20;99.90;;;;;;4174954;28;20480;-64
2022/10/04 03:23:04;;;;;;;5.78;3.58;;;13.20;99.90;;;;;;4163993;28;20473;-63
2022/10/04 03:25:05;;;;;;;5.97;3.55;;;13.20;99.90;;;;;;4167856;28;20030;-64
2022/10/04 03:27:12;;;;;;;8.15;3.33;;;13.10;99.90;;;;;;4171537;28;20388;-64
2022/10/04 03:29:16;;;;;;;6.65;3.30;;;13.10;99.90;;;;;;4170944;28;20079;-64
2022/10/04 03:31:18;;;;;;;7.68;3.95;;;13.10;99.90;;;;;;4169129;28;20057;-63
2022/10/04 03:33:24;;;;;;;7.95;3.58;;;13.10;99.90;;;;;;4173768;28;20476;-64
2022/10/04 03:35:31;;;;;;;7.97;4.30;;;13.10;99.90;;;;;;4183090;28;20128;-64
2022/10/04 03:37:35;;;;;;;9.27;4.00;;;13.10;99.90;;;;;;4177795;28;20060;-63
2022/10/04 03:39:46;;;;;;;7.63;3.70;;;13.00;99.90;;;;;;4186802;28;20024;-63
2022/10/04 03:41:47;;;;;;;7.05;3.72;;;13.00;99.90;;;;;;4185420;28;20045;-64
2022/10/04 03:43:49;;;;;;;5.20;3.38;;;13.00;99.90;;;;;;4185983;28;20476;-64
2022/10/04 03:45:51;;;;;;;8.23;4.25;;;13.00;99.90;;;;;;4185508;28;20130;-64
2022/10/04 03:47:53;;;;;;;8.98;3.63;;;13.00;99.90;;;;;;4185336;28;20115;-64
2022/10/04 03:49:57;;;;;;;9.00;3.40;;;13.00;99.90;;;;;;4184279;28;20040;-63
2022/10/04 03:51:59;;;;;;;8.05;3.67;;;13.00;99.90;;;;;;4185006;28;20120;-64
2022/10/04 03:54:02;;;;;;;8.80;3.95;;;13.00;99.90;;;;;;4183910;28;20033;-64
2022/10/04 03:56:25;;;;;;;7.28;3.70;;;12.90;99.90;;;;;;4187732;28;20466;-63
2022/10/04 03:58:29;;;;;;;7.65;3.90;;;12.90;99.90;;;;;;4190284;28;20151;-64
2022/10/04 04:00:31;;;;;;;8.80;3.78;;;12.90;99.90;;;;;;4182119;28;20522;-64
2022/10/04 04:02:38;;;;;;;5.30;3.55;;;12.90;99.90;;;;;;4183352;28;20029;-64
2022/10/04 04:05:00;;;;;;;8.13;3.70;;;12.90;99.90;;;;;;4172772;28;20045;-64
2022/10/04 04:07:05;;;;;;;7.82;3.88;;;12.90;99.90;;;;;;4164370;28;20059;-64
2022/10/04 04:09:07;;;;;;;10.75;4.15;;;12.80;99.90;;;;;;4167721;28;20050;-64
2022/10/04 04:11:21;;;;;;;6.85;3.78;;;12.80;99.90;;;;;;4163560;28;20083;-64
2022/10/04 04:13:49;;;;;;;9.65;3.72;;;12.80;99.90;;;;;;4169209;28;20554;-63
2022/10/04 04:15:52;;;;;;;6.90;4.15;;;12.80;99.90;;;;;;4160659;28;20041;-63
2022/10/04 04:17:53;;;;;;;;;;;12.80;99.90;;;;;;4168914;28;20028;-64
2022/10/04 04:19:58;;;;;;;6.10;3.42;;;12.80;99.90;;;;;;4167601;28;20353;-63
2022/10/04 04:21:58;;;;;;;6.03;3.85;;;12.70;99.90;;;;;;4167234;28;20035;-64
2022/10/04 04:24:13;;;;;;;5.25;3.22;;;12.80;99.90;;;;;;4175472;28;20037;-64
2022/10/04 04:26:31;;;;;;;9.45;4.05;;;12.70;99.90;;;;;;4171061;28;20064;-63
2022/10/04 04:28:47;;;;;;;7.00;3.83;;;12.70;99.90;;;;;;4170937;28;20060;-63
2022/10/04 04:30:54;;;;;;;7.93;3.92;;;12.70;99.90;;;;;;4173199;28;20069;-63
2022/10/04 04:32:56;;;;;;;8.52;3.97;;;12.70;99.90;;;;;;4169874;28;20041;-63
2022/10/04 04:35:07;;;;;;;6.03;3.92;;;12.70;99.90;;;;;;4169842;28;20041;-63
2022/10/04 04:37:09;;;;;;;6.70;3.38;;;12.60;99.90;;;;;;4170130;28;20112;-64
2022/10/04 04:41:38;;;;;;;5.57;3.50;;;12.60;99.90;;;;;;4169141;28;20045;-65
2022/10/04 04:43:43;;;;;;;8.25;4.00;;;12.70;99.90;;;;;;4172453;28;20120;-63
2022/10/04 04:45:44;;;;;;;7.80;4.00;;;12.60;99.90;;;;;;4170212;28;20108;-64
2022/10/04 04:47:49;;;;;;;8.70;3.42;;;12.50;99.90;;;;;;4176293;28;20033;-64
2022/10/04 04:49:50;;;;;;;8.15;3.83;;;12.60;99.90;;;;;;4151372;28;20477;-64
2022/10/04 04:51:51;;;;;;;7.53;3.50;;;12.50;99.90;;;;;;4167880;28;20029;-63
2022/10/04 04:53:54;;;;;;;7.07;3.60;;;12.60;99.90;;;;;;4171966;28;20094;-63
2022/10/04 04:56:00;;;;;;;6.82;3.20;;;12.60;99.90;;;;;;4164738;28;20413;-63
2022/10/04 04:58:03;;;;;;;5.78;3.42;;;12.50;99.90;;;;;;4170754;28;20033;-61
2022/10/04 05:00:04;;;;;;;9.00;3.95;;;12.50;99.90;;;;;;4170245;28;20025;-62
2022/10/04 05:02:26;;;;;;;9.55;3.83;;;12.50;99.90;;;;;;4166896;28;20040;-61
2022/10/04 05:04:27;;;;;;;11.93;4.00;;;12.50;99.90;;;;;;4166552;28;20048;-61
2022/10/04 05:06:30;;;;;;;6.20;3.55;;;12.50;99.90;;;;;;4148553;28;20030;-63
2022/10/04 05:08:32;;;;;;;8.23;3.70;;;12.40;99.90;;;;;;4171675;28;20112;-61
2022/10/04 05:10:33;;;;;;;7.18;3.85;;;12.50;99.90;;;;;;4165004;28;20477;-61
2022/10/04 05:12:34;;;;;;;7.05;3.63;;;12.40;99.90;;;;;;4171082;28;20044;-63
2022/10/04 05:14:38;;;;;;;6.60;3.67;;;12.40;99.90;;;;;;4167680;28;20052;-61
2022/10/04 05:16:47;;;;;;;11.82;3.78;;;12.40;99.90;;;;;;4167531;28;20044;-61
2022/10/04 05:18:58;;;;;;;7.10;3.47;;;12.40;99.90;;;;;;4168872;28;20048;-60
2022/10/04 05:21:06;;;;;;;6.05;3.67;;;12.40;99.90;;;;;;4165723;28;20037;-61
2022/10/04 05:23:11;;;;;;;7.70;3.75;;;12.40;99.90;;;;;;4163929;28;20439;-63
2022/10/04 05:25:32;;;;;;;7.90;3.28;;;12.40;99.90;;;;;;4165448;28;20068;-62
2022/10/04 05:27:39;;;;;;;8.82;3.75;;;12.40;99.90;;;;;;4167366;28;20491;-60
2022/10/04 05:29:53;;;;;;;6.53;3.35;;;12.30;99.90;;;;;;4156241;28;20044;-61
2022/10/04 05:32:03;;;;;;;7.63;4.05;;;12.30;99.90;;;;;;4163521;28;20076;-61
2022/10/04 05:34:20;;;;;;;7.18;3.47;;;12.30;99.90;;;;;;4177245;28;20032;-61
2022/10/04 05:36:53;;;;;;;7.57;3.70;;;12.30;99.90;;;;;;4156701;28;20472;-61
2022/10/04 05:39:02;;;;;;;6.70;3.63;;;12.20;99.90;;;;;;4177414;28;20088;-61
2022/10/04 05:41:28;;;;;;;5.50;3.53;;;12.20;99.90;;;;;;4181933;28;20020;-61
2022/10/04 05:43:34;;;;;;;6.13;3.50;;;12.20;99.90;;;;;;4180266;28;20033;-61
2022/10/04 05:45:35;;;;;;;6.55;3.35;;;12.20;99.90;;;;;;4165433;28;20039;-61
2022/10/04 05:47:39;;;;;;;6.63;3.67;;;12.20;99.90;;;;;;4160219;28;20477;-61
2022/10/04 05:49:42;;;;;;;6.30;4.00;;;12.10;99.90;;;;;;4161429;28;20036;-61
2022/10/04 05:52:11;;;;;;;6.38;4.47;;;12.20;99.90;;;;;;4164568;28;20025;-61
2022/10/04 05:54:12;;;;;;;8.45;4.82;;;12.10;99.90;;;;;;4161969;28;20029;-61
2022/10/04 05:56:30;;;;;;;7.97;5.35;;;12.10;99.90;;;;;;4157549;28;20037;-60
2022/10/04 05:58:56;;;;;;;12.38;5.88;;;12.20;99.90;;;;;;4160792;28;20029;-61
2022/10/04 06:01:06;;;;;;;10.18;5.45;;;12.20;99.90;;;;;;4177664;28;20037;-61
2022/10/04 06:03:28;;;;;;;10.25;5.03;;;12.10;99.90;;;;;;4149281;28;20485;-63
2022/10/04 06:05:28;;;;;;;7.93;5.13;;;12.20;99.90;;;;;;4168972;28;20512;-60
2022/10/04 06:07:37;;;;;;;7.93;5.00;;;12.10;99.90;;;;;;4168229;28;20115;-61
2022/10/04 06:09:49;;;;;;;8.45;5.22;;;12.20;99.90;;;;;;4173101;28;20037;-61
2022/10/04 06:12:05;;;;;;;8.13;4.10;;;12.10;99.90;;;;;;4167461;28;20033;-61
2022/10/04 06:14:06;;;;;;;6.53;4.05;;;12.10;99.90;;;;;;4165517;28;20056;-60
2022/10/04 06:16:25;;;;;;;8.88;4.40;;;12.10;99.90;;;;;;4166903;28;20045;-61
2022/10/04 06:18:45;;;;;;;8.40;4.10;;;12.00;99.90;;;;;;4170288;28;20178;-61
2022/10/04 06:21:10;;;;;;;8.23;3.70;;;12.10;99.90;;;;;;4172001;28;20499;-61
2022/10/04 06:23:17;;;;;;;6.60;3.53;;;12.10;99.90;;;;;;4174372;28;20159;-61
2022/10/04 06:25:47;;;;;;;5.38;3.15;;;12.00;99.90;;;;;;4167410;28;20036;-61
2022/10/04 06:28:02;;;;;;;8.43;3.92;;;12.00;99.90;;;;;;4164575;28;20061;-61
2022/10/04 06:30:06;;;;;;;6.38;3.30;;;12.10;99.90;;;;;;4169453;28;20072;-64
2022/10/04 06:32:25;;;;;;;9.05;3.97;;;12.00;99.90;;;;;;4160846;28;20026;-63
2022/10/04 06:34:34;;;;;;;7.55;3.97;;;12.00;99.90;;;;;;4168406;28;20044;-63
2022/10/04 06:37:08;;;;;;;6.35;3.33;;;12.10;99.90;;;;;;4162745;28;20041;-63
2022/10/04 06:39:21;;;;;;;10.40;3.85;;;12.10;99.90;;;;;;4168267;28;20033;-63
2022/10/04 06:41:34;;;;;;;6.65;3.70;;;12.10;99.90;;;;;;4167860;28;20029;-63
2022/10/04 06:44:13;;;;;;;7.07;3.92;;;12.00;99.90;;;;;;4150046;28;20541;-63
2022/10/04 06:46:16;;;;;;;8.38;3.67;;;12.00;99.90;;;;;;4132501;28;20041;-63
2022/10/04 06:48:55;;;;;;;10.35;4.60;;;12.10;99.90;;;;;;4170471;28;20075;-63
2022/10/04 06:50:58;;;;;;;7.07;3.83;;;12.10;99.90;;;;;;4169606;28;20442;-63
2022/10/04 06:53:39;;;;;;;5.30;3.70;;;12.10;99.90;;;;;;4171294;28;20032;-63
2022/10/04 06:56:17;;;;;;;5.43;3.75;;;12.20;99.90;;;;;;4100381;28;20700;-64
2022/10/04 06:58:36;;;;;;;6.60;4.05;;;12.20;99.90;;;;;;4154642;28;20464;-63
2022/10/04 07:01:03;;;;;;;8.05;4.10;;;12.30;99.90;;;;;;4164971;28;20038;-63
2022/10/04 07:03:12;;;;;;;8.38;4.50;;;12.30;99.90;;;;;;4175753;28;20029;-63
2022/10/04 07:05:33;;;;;;;7.15;3.60;;;12.30;99.90;;;;;;4168981;28;20049;-63
2022/10/04 07:07:37;;;;;;;7.00;3.70;;;12.40;99.90;;;;;;4151435;28;20033;-63
2022/10/04 07:09:42;;;;;;;7.55;3.85;;;12.40;99.90;;;;;;4153515;28;20026;-64
2022/10/04 07:11:54;;;;;;;5.68;3.45;;;12.40;99.90;;;;;;4151799;28;20556;-63
2022/10/04 07:14:16;;;;;;;8.18;4.03;;;12.50;99.90;;;;;;4163278;28;20049;-63
2022/10/04 07:16:38;;;;;;;7.93;3.63;;;12.60;99.90;;;;;;4158694;28;20531;-63
2022/10/04 07:18:58;;;;;;;6.93;4.07;;;12.60;99.90;;;;;;4155485;28;20036;-64
2022/10/04 07:21:10;;;;;;;6.63;3.92;;;12.70;99.90;;;;;;4166859;28;20032;-63
2022/10/04 07:23:21;;;;;;;6.03;3.90;;;12.60;99.90;;;;;;4156049;28;20060;-64
2022/10/04 07:25:35;;;;;;;5.93;3.40;;;12.70;99.90;;;;;;4146976;28;20488;-63
2022/10/04 07:30:21;;;;;;;6.13;3.55;;;12.80;99.90;;;;;;4167596;28;20033;-63
2022/10/04 07:32:26;;;;;;;6.45;3.92;;;12.80;99.90;;;;;;4172303;28;20087;-63
2022/10/04 07:34:29;;;;;;;5.72;3.90;;;12.80;99.90;;;;;;4172253;28;20029;-63
2022/10/04 07:36:43;;;;;;;9.75;4.10;;;12.90;99.90;;;;;;4166906;28;20057;-63
2022/10/04 07:38:52;;;;;;;6.10;3.65;;;12.90;99.90;;;;;;4172325;28;20052;-63
2022/10/04 07:40:55;;;;;;;5.95;4.10;;;13.00;99.90;;;;;;4168952;28;20064;-63
2022/10/04 07:43:04;;;;;;;8.48;4.40;;;13.00;99.90;;;;;;4172935;28;20499;-63
2022/10/04 07:45:10;;;;;;;7.25;4.38;;;13.10;99.90;;;;;;4170264;28;20127;-64
2022/10/04 07:47:26;;;;;;;5.53;3.60;;;13.10;99.90;;;;;;4155278;28;20484;-64
2022/10/04 07:49:27;;;;;;;7.65;4.20;;;13.20;99.90;;;;;;4151481;28;20109;-63
2022/10/04 07:51:28;;;;;;;7.47;4.05;;;13.30;99.90;;;;;;4169287;28;20080;-63
2022/10/04 07:53:51;;;;;;;6.68;3.70;;;13.40;99.90;;;;;;4175082;28;20376;-63
2022/10/04 07:56:21;;;;;;;8.05;3.90;;;13.50;99.90;;;;;;4160617;28;20037;-63
2022/10/04 07:58:37;;;;;;;6.65;4.10;;;13.60;99.90;;;;;;4169746;28;20115;-64
2022/10/04 08:00:59;;;;;;;7.07;4.30;;;13.90;99.90;;;;;;4173488;28;20029;-66
2022/10/04 08:03:11;;;;;;;11.75;5.05;;;14.10;99.90;;;;;;4172452;28;20496;-63
2022/10/04 08:05:44;;;;;;;9.00;5.35;;;14.30;99.90;;;;;;4163859;28;20485;-64
2022/10/04 08:08:03;;;;;;;8.68;4.95;;;14.40;99.90;;;;;;4146964;28;20030;-64
2022/10/04 08:10:12;;;;;;;8.65;4.95;;;14.60;99.90;;;;;;4167596;28;20033;-64
2022/10/04 08:12:46;;;;;;;11.07;5.00;;;14.70;99.90;;;;;;4168678;28;20029;-64
2022/10/04 08:14:54;;;;;;;;;;;14.70;99.90;;;;;;4157640;28;20046;-64
2022/10/04 08:17:13;;;;;;;6.93;4.28;;;14.90;99.90;;;;;;4159770;28;19966;-64
2022/10/04 08:19:14;;;;;;;6.28;3.70;;;15.00;99.90;;;;;;4165275;28;20049;-64
2022/10/04 08:21:30;;;;;;;7.03;3.83;;;15.00;99.90;;;;;;4166396;28;20030;-64
2022/10/04 08:23:58;;;;;;;8.85;3.63;;;15.10;99.90;;;;;;4171289;28;20419;-64
2022/10/04 08:26:06;;;;;;;6.00;3.50;;;15.30;99.90;;;;;;4160640;28;20380;-64
2022/10/04 08:31:14;;;;;;;7.22;3.58;;;15.50;99.90;;;;;;4164614;28;20033;-64
2022/10/04 08:33:52;;;;;;;6.25;3.50;;;15.60;99.90;;;;;;4148922;28;20033;-64
2022/10/04 08:36:17;;;;;;;4.95;2.90;;;15.70;99.90;;;;;;4164623;28;20036;-64
2022/10/04 08:38:43;;;;;;;6.15;3.08;;;15.80;99.90;;;;;;4167255;28;20488;-64
2022/10/04 08:41:02;;;;;;;6.68;3.35;;;15.80;99.90;;;;;;4165711;28;20036;-64
2022/10/04 08:43:37;;;;;;;7.72;3.83;;;15.90;99.90;;;;;;4164779;28;20393;-64
2022/10/04 08:46:03;;;;;;;5.97;3.10;;;16.10;99.90;;;;;;4173881;28;20561;-64
2022/10/04 08:48:07;;;;;;;6.60;3.17;;;16.20;99.90;;;;;;4155235;28;20033;-64
2022/10/04 08:50:21;;;;;;;10.38;3.92;;;16.30;99.90;;;;;;4167925;28;20037;-63
2022/10/04 08:52:57;;;;;;;8.27;3.67;;;16.40;99.90;;;;;;4167129;28;20103;-63
2022/10/04 08:55:13;;;;;;;6.78;3.50;;;16.50;99.90;;;;;;4168595;28;20053;-63
2022/10/04 08:58:00;;;;;;;4.78;3.50;;;16.60;99.90;;;;;;4175424;28;20090;-63
2022/10/04 09:00:19;;;;;;;11.60;3.83;;;16.70;99.90;;;;;;4168940;28;20106;-62
2022/10/04 09:02:57;;;;;;;6.07;3.38;;;16.90;99.90;;;;;;4166929;28;20032;-63
2022/10/04 09:05:06;;;;;;;6.70;3.53;;;17.00;99.90;;;;;;4171796;28;20068;-63
2022/10/04 09:07:31;;;;;;;9.55;4.03;;;17.10;99.90;;;;;;4147843;28;20025;-63
2022/10/04 09:10:12;;;;;;;4.63;2.97;;;17.10;99.90;;;;;;4166135;28;20429;-63
2022/10/04 09:12:31;;;;;;;7.75;3.88;;;17.20;99.90;;;;;;4171166;28;20036;-63
2022/10/04 09:15:11;;;;;;;7.82;3.20;;;17.20;99.90;;;;;;4169218;28;20046;-63
2022/10/04 09:17:37;;;;;;;5.72;3.20;;;17.30;99.90;;;;;;4168226;28;20025;-63
2022/10/04 09:20:00;;;;;;;8.63;3.53;;;17.40;99.90;;;;;;4150465;28;20481;-65
2022/10/04 09:22:08;;;;;;;6.50;3.53;;;17.50;99.90;;;;;;4167719;28;20034;-63
2022/10/04 09:24:33;;;;;;;5.85;3.20;;;17.50;99.90;;;;;;4171973;28;20261;-64
2022/10/04 09:26:39;;;;;;;6.05;3.35;;;17.50;99.90;;;;;;4166137;28;20029;-64
2022/10/04 09:29:25;;;;;;;5.07;3.03;;;17.50;99.90;;;;;;4170754;28;20029;-63
2022/10/04 09:31:55;;;;;;;9.27;3.70;;;17.60;99.90;;;;;;4166721;28;20021;-63
2022/10/04 09:34:28;;;;;;;5.88;3.80;;;17.60;99.90;;;;;;4166053;28;20036;-63
2022/10/04 09:36:57;;;;;;;9.40;3.20;;;17.60;99.90;;;;;;4169139;28;20060;-63
2022/10/04 09:39:06;;;;;;;6.93;3.47;;;17.70;99.90;;;;;;4168892;28;20042;-63
2022/10/04 09:41:12;;;;;;;8.20;3.65;;;17.80;99.90;;;;;;4159930;28;20049;-64
2022/10/04 09:43:43;;;;;;;5.93;3.22;;;17.80;99.90;;;;;;4175904;28;20171;-63
2022/10/04 09:46:28;;;;;;;5.82;3.53;;;17.80;99.90;;;;;;4151852;28;20030;-63
2022/10/04 09:48:35;;;;;;;6.45;3.70;;;17.80;99.90;;;;;;4139069;28;20125;-63
2022/10/04 09:51:08;;;;;;;7.05;3.42;;;17.90;99.90;;;;;;4149452;28;20444;-63
2022/10/04 09:53:45;;;;;;;6.97;3.35;;;18.00;99.90;;;;;;4166388;28;20056;-64
2022/10/04 09:56:13;;;;;;;4.55;2.95;;;18.00;99.90;;;;;;4170107;28;20514;-64
2022/10/04 09:58:24;;;;;;;6.25;3.55;;;18.10;99.90;;;;;;4158961;28;20026;-64
2022/10/04 10:00:46;;;;;;;10.35;3.40;;;18.00;99.90;;;;;;4155872;28;20038;-64
2022/10/04 10:02:55;;;;;;;7.00;3.13;;;18.10;99.90;;;;;;4167728;28;20040;-63
2022/10/04 10:05:15;;;;;;;9.20;4.05;;;18.10;99.90;;;;;;4166723;28;20064;-64
2022/10/04 10:07:33;;;;;;;4.45;2.67;;;18.10;99.90;;;;;;4165374;28;20172;-64
2022/10/04 10:15:28;;;;;;;5.78;3.00;;;18.30;99.90;;;;;;4159427;28;20049;-63
2022/10/04 10:17:58;;;;;;;5.95;3.17;;;18.30;99.90;;;;;;4157659;28;20137;-63
2022/10/04 10:20:08;;;;;;;5.57;3.22;;;18.40;99.90;;;;;;4139958;28;20045;-63
2022/10/04 10:22:31;;;;;;;5.50;2.92;;;18.40;99.90;;;;;;4152429;28;20026;-63
2022/10/04 10:24:43;;;;;;;6.47;3.03;;;18.40;99.90;;;;;;4157356;28;20040;-63
2022/10/04 10:26:46;;;;;;;6.78;3.15;;;18.40;99.90;;;;;;4154720;28;20495;-64
2022/10/04 10:28:49;;;;;;;3.60;2.70;;;18.40;99.90;;;;;;4152821;28;20026;-64
2022/10/04 10:31:20;;;;;;;8.20;3.05;;;18.50;99.90;;;;;;4150257;28;20045;-64
2022/10/04 10:33:39;;;;;;;8.40;2.90;;;18.50;99.90;;;;;;4155565;28;20112;-64
2022/10/04 10:36:08;;;;;;;5.88;3.30;;;18.60;99.90;;;;;;4168761;28;20084;-65
2022/10/04 10:38:39;;;;;;;6.30;2.58;;;18.60;99.90;;;;;;4170751;28;20400;-64
2022/10/04 10:41:04;;;;;;;6.78;2.90;;;18.70;99.90;;;;;;4168844;28;20037;-64
2022/10/04 10:43:36;;;;;;;4.57;2.55;;;18.70;99.90;;;;;;4169591;28;20036;-64
2022/10/04 10:46:05;;;;;;;6.00;2.88;;;18.60;99.90;;;;;;4164696;28;20041;-64
2022/10/04 10:48:43;;;;;;;5.50;2.95;;;18.60;99.90;;;;;;4165718;28;20508;-65
2022/10/04 10:50:59;;;;;;;7.63;2.70;;;18.60;99.90;;;;;;4172548;28;20485;-64
2022/10/04 10:53:42;;;;;;;7.50;3.20;;;18.70;99.90;;;;;;4169491;28;20375;-63
2022/10/04 10:55:48;;;;;;;5.35;3.50;;;18.70;99.90;;;;;;4140164;28;20026;-64
2022/10/04 10:58:16;;;;;;;6.43;3.38;;;18.70;99.90;;;;;;4158947;28;20036;-63
2022/10/04 11:00:22;;;;;;;6.93;3.60;;;18.70;99.90;;;;;;4152480;28;20096;-64
2022/10/04 11:02:50;;;;;;;5.50;3.03;;;18.70;99.90;;;;;;4155841;28;20509;-64
2022/10/04 11:05:22;;;;;;;8.48;3.95;;;18.70;99.90;;;;;;4154227;28;20025;-64
2022/10/04 11:07:53;;;;;;;7.55;3.53;;;18.70;99.90;;;;;;4150635;28;20497;-64
2022/10/04 11:10:17;;;;;;;6.97;3.40;;;18.70;99.90;;;;;;4151636;28;20121;-64
2022/10/04 11:12:47;;;;;;;12.02;3.15;;;18.70;99.90;;;;;;4153131;28;20121;-64
2022/10/04 11:15:12;;;;;;;6.90;3.70;;;18.80;99.90;;;;;;4141618;28;20519;-64
2022/10/04 11:17:30;;;;;;;6.05;3.20;;;18.70;99.90;;;;;;4169161;28;20524;-64
2022/10/04 11:20:10;;;;;;;7.80;3.58;;;18.70;99.90;;;;;;4164596;28;20026;-63
2022/10/04 11:22:44;;;;;;;10.77;3.17;;;18.70;99.90;;;;;;4168142;28;20459;-64
2022/10/04 11:25:24;;;;;;;6.45;3.13;;;18.80;99.90;;;;;;4174308;28;20481;-64
2022/10/04 11:27:51;;;;;;;8.82;3.35;;;18.80;99.90;;;;;;4174787;28;20029;-64
2022/10/04 11:30:07;;;;;;;6.47;3.17;;;18.90;99.90;;;;;;4167010;28;20033;-64
2022/10/04 11:32:39;;;;;;;6.78;3.45;;;18.90;99.90;;;;;;4167466;28;20040;-64
2022/10/04 11:35:07;;;;;;;8.48;3.78;;;18.90;99.90;;;;;;4167774;28;20500;-64
2022/10/04 11:37:26;;;;;;;4.63;2.80;;;18.90;99.90;;;;;;4165430;28;20119;-64
2022/10/04 11:39:52;;;;;;;4.63;2.67;;;19.00;99.90;;;;;;4149993;28;20425;-64
2022/10/04 11:42:15;;;;;;;6.78;3.38;;;19.00;99.90;;;;;;4162620;28;20037;-64
2022/10/04 11:44:47;;;;;;;7.85;3.50;;;19.10;99.90;;;;;;4166586;28;20492;-64
2022/10/04 11:47:07;;;;;;;6.72;3.35;;;19.10;99.90;;;;;;4157371;28;20033;-64
2022/10/04 11:49:56;;;;;;;7.07;2.90;;;19.10;99.90;;;;;;4160508;28;20048;-63
2022/10/04 11:52:29;;;;;;;12.20;3.20;;;19.20;99.90;;;;;;4157493;28;20099;-64
2022/10/04 11:55:07;;;;;;;8.43;3.63;;;19.20;99.90;;;;;;4166562;28;20048;-64